createdAt,value
2019-03-21T00:01:33.712Z,80.87
2019-03-21T00:04:11.678Z,63.02
2019-03-21T00:06:43.551Z,81.47
2019-03-21T00:09:17.643Z,70.62
2019-03-21T00:12:00.505Z,82.00
2019-03-21T00:14:41.317Z,61.28
2019-03-21T00:17:13.436Z,83.22
2019-03-21T00:19:45.614Z,79.60
2019-03-21T00:22:17.359Z,77.25
2019-03-21T00:24:49.133Z,80.62
2019-03-21T00:27:20.907Z,85.17
2019-03-21T00:29:52.821Z,85.77
2019-03-21T00:32:24.570Z,78.70
2019-03-21T00:34:56.757Z,78.45
2019-03-21T00:37:28.842Z,64.85
2019-03-21T00:40:00.656Z,76.37
2019-03-21T00:42:32.453Z,78.05
2019-03-21T00:45:04.694Z,86.65
2019-03-21T00:47:36.835Z,82.67
2019-03-21T00:50:10.583Z,75.28
2019-03-21T00:52:42.309Z,75.30
2019-03-21T00:55:14.041Z,77.08
2019-03-21T00:57:45.890Z,61.90
2019-03-21T01:00:25.437Z,52.98
2019-03-21T01:02:57.267Z,36.65
2019-03-21T01:05:28.984Z,78.07
2019-03-21T01:08:00.731Z,66.95
2019-03-21T01:10:32.889Z,69.22
2019-03-21T01:13:04.844Z,80.15
2019-03-21T01:15:36.561Z,75.70
2019-03-21T01:18:08.255Z,73.20
2019-03-21T01:20:40.111Z,70.80
2019-03-21T01:23:11.768Z,74.75
2019-03-21T01:25:49.364Z,64.15
2019-03-21T01:28:21.039Z,77.92
2019-03-21T01:30:52.832Z,46.30
2019-03-21T01:33:24.942Z,72.12
2019-03-21T01:35:56.598Z,36.60
2019-03-21T01:38:28.391Z,72.10
2019-03-21T01:41:00.182Z,62.35
2019-03-21T01:43:32.313Z,47.95
2019-03-21T01:46:05.400Z,62.78
2019-03-21T01:48:37.438Z,62.95
2019-03-21T01:51:09.633Z,66.95
2019-03-21T01:53:41.438Z,61.48
2019-03-21T01:56:15.711Z,69.07
2019-03-21T01:58:47.435Z,60.80
2019-03-21T02:01:19.305Z,48.35
2019-03-21T02:03:51.497Z,58.87
2019-03-21T02:06:23.379Z,48.10
2019-03-21T02:08:55.685Z,29.20
2019-03-21T02:11:27.593Z,34.15
2019-03-21T02:13:59.463Z,42.43
2019-03-21T02:16:31.709Z,38.13
2019-03-21T02:19:03.473Z,49.67
2019-03-21T02:21:35.234Z,38.67
2019-03-21T02:24:08.648Z,56.58
2019-03-21T02:26:40.445Z,52.90
2019-03-21T02:29:12.262Z,53.83
2019-03-21T02:31:44.059Z,52.40
2019-03-21T02:34:16.241Z,34.78
2019-03-21T02:36:48.952Z,36.83
2019-03-21T02:39:20.803Z,42.45
2019-03-21T02:41:52.735Z,58.02
2019-03-21T02:44:24.502Z,26.17
2019-03-21T02:46:56.238Z,61.70
2019-03-21T02:49:27.917Z,50.60
2019-03-21T02:52:01.193Z,53.17
2019-03-21T02:54:33.912Z,55.08
2019-03-21T02:57:05.634Z,47.05
2019-03-21T02:59:37.357Z,34.55
2019-03-21T03:02:09.049Z,45.67
2019-03-21T03:04:40.853Z,58.15
2019-03-21T03:07:12.490Z,43.73
2019-03-21T03:09:44.170Z,35.38
2019-03-21T03:12:15.876Z,46.37
2019-03-21T03:14:47.584Z,32.25
2019-03-21T03:17:19.617Z,64.75
2019-03-21T03:19:51.378Z,60.43
2019-03-21T03:22:23.026Z,51.90
2019-03-21T03:24:54.807Z,58.15
2019-03-21T03:27:26.817Z,48.75
2019-03-21T03:29:58.574Z,59.35
2019-03-21T03:32:30.217Z,33.60
2019-03-21T03:35:02.176Z,37.28
2019-03-21T03:37:34.008Z,51.45
2019-03-21T03:40:09.030Z,43.73
2019-03-21T03:42:40.806Z,50.25
2019-03-21T03:45:16.053Z,36.93
2019-03-21T03:47:48.055Z,41.53
2019-03-21T03:50:19.747Z,49.88
2019-03-21T03:52:51.786Z,36.00
2019-03-21T03:55:23.583Z,34.27
2019-03-21T03:57:56.281Z,55.40
2019-03-21T04:00:28.344Z,48.85
2019-03-21T04:03:00.073Z,35.60
2019-03-21T04:05:31.886Z,53.17
2019-03-21T04:08:03.616Z,44.77
2019-03-21T04:10:37.541Z,38.92
2019-03-21T04:13:09.249Z,42.13
2019-03-21T04:15:52.815Z,39.05
2019-03-21T04:18:15.835Z,57.88
2019-03-21T04:20:48.306Z,40.52
2019-03-21T04:23:20.467Z,51.25
2019-03-21T04:26:10.370Z,50.55
2019-03-21T04:28:42.850Z,35.20
2019-03-21T04:31:15.059Z,50.23
2019-03-21T04:33:46.959Z,36.45
2019-03-21T04:36:18.823Z,52.30
2019-03-21T04:38:50.574Z,56.40
2019-03-21T04:41:22.296Z,62.05
2019-03-21T04:43:54.162Z,60.63
2019-03-21T04:46:26.139Z,63.48
2019-03-21T04:48:57.888Z,58.02
2019-03-21T04:51:29.580Z,64.35
2019-03-21T04:54:01.379Z,46.55
2019-03-21T04:56:33.235Z,45.30
2019-03-21T04:59:05.001Z,55.25
2019-03-21T05:01:36.803Z,56.63
2019-03-21T05:04:08.590Z,50.83
2019-03-21T05:06:41.260Z,50.73
2019-03-21T05:09:16.812Z,58.78
2019-03-21T05:11:48.898Z,55.90
2019-03-21T05:14:20.666Z,52.43
2019-03-21T05:16:52.388Z,65.60
2019-03-21T05:19:24.092Z,53.98
2019-03-21T05:21:56.947Z,67.47
2019-03-21T05:24:28.837Z,45.52
2019-03-21T05:27:00.577Z,45.40
2019-03-21T05:29:32.628Z,54.93
2019-03-21T05:32:04.424Z,47.48
2019-03-21T05:34:36.301Z,53.08
2019-03-21T05:37:08.376Z,52.73
2019-03-21T05:39:40.252Z,42.13
2019-03-21T05:42:16.800Z,50.17
2019-03-21T05:44:48.556Z,48.65
2019-03-21T05:47:20.324Z,57.13
2019-03-21T05:49:52.150Z,33.95
2019-03-21T05:52:23.983Z,42.75
2019-03-21T05:54:55.777Z,53.70
2019-03-21T05:57:27.551Z,52.67
2019-03-21T05:59:59.299Z,46.80
2019-03-21T06:02:31.034Z,44.18
2019-03-21T06:05:02.830Z,54.30
2019-03-21T06:07:47.471Z,52.53
2019-03-21T06:10:19.824Z,55.15
2019-03-21T06:12:52.059Z,32.42
2019-03-21T06:15:27.511Z,46.20
2019-03-21T06:18:16.558Z,43.83
2019-03-21T06:21:05.188Z,46.42
2019-03-21T06:23:59.406Z,26.93
2019-03-21T06:26:57.962Z,38.75
2019-03-21T06:29:30.149Z,39.48
2019-03-21T06:32:02.058Z,45.10
2019-03-21T06:34:33.737Z,40.48
2019-03-21T06:37:05.559Z,56.37
2019-03-21T06:39:37.298Z,37.10
2019-03-21T06:42:09.087Z,42.93
2019-03-21T06:44:40.793Z,52.25
2019-03-21T06:47:12.633Z,42.45
2019-03-21T06:49:46.462Z,52.53
2019-03-21T06:52:17.743Z,48.33
2019-03-21T06:54:49.851Z,38.55
2019-03-21T06:57:21.798Z,47.13
2019-03-21T06:59:54.033Z,41.00
2019-03-21T07:02:25.870Z,35.10
2019-03-21T07:04:57.755Z,39.38
2019-03-21T07:07:29.875Z,30.88
2019-03-21T07:10:01.647Z,32.90
2019-03-21T07:12:33.414Z,38.95
2019-03-21T07:15:06.605Z,35.13
2019-03-21T07:17:38.389Z,37.67
2019-03-21T07:20:12.581Z,40.00
2019-03-21T07:22:44.301Z,38.50
2019-03-21T07:25:16.061Z,40.35
2019-03-21T07:27:47.806Z,31.23
2019-03-21T07:30:20.067Z,32.65
2019-03-21T07:32:51.896Z,31.07
2019-03-21T07:35:23.617Z,25.70
2019-03-21T07:37:56.402Z,32.13
2019-03-21T07:40:28.271Z,41.00
2019-03-21T07:42:59.999Z,50.50
2019-03-21T07:45:32.077Z,39.65
2019-03-21T07:48:05.277Z,42.33
2019-03-21T07:50:37.718Z,41.50
2019-03-21T07:53:09.788Z,42.00
2019-03-21T07:55:41.622Z,36.65
2019-03-21T07:58:14.611Z,40.38
2019-03-21T08:00:46.319Z,40.35
2019-03-21T08:03:18.103Z,37.58
2019-03-21T08:05:49.851Z,40.88
2019-03-21T08:08:21.587Z,23.00
2019-03-21T08:10:53.657Z,48.90
2019-03-21T08:13:26.000Z,48.40
2019-03-21T08:15:57.838Z,42.27
2019-03-21T08:18:29.773Z,44.42
2019-03-21T08:21:01.602Z,48.23
2019-03-21T08:23:33.361Z,48.60
2019-03-21T08:26:05.150Z,34.85
2019-03-21T08:28:37.835Z,39.80
2019-03-21T08:31:26.352Z,23.77
2019-03-21T08:33:58.490Z,27.95
2019-03-21T08:36:30.387Z,35.88
2019-03-21T08:39:02.195Z,24.95
2019-03-21T08:41:35.207Z,42.90
2019-03-21T08:44:06.965Z,37.58
2019-03-21T08:46:38.645Z,33.80
2019-03-21T08:49:10.396Z,28.77
2019-03-21T08:51:42.199Z,32.38
2019-03-21T08:54:14.046Z,39.13
2019-03-21T08:56:45.884Z,29.42
2019-03-21T08:59:19.473Z,38.25
2019-03-21T09:01:51.207Z,36.30
2019-03-21T09:04:23.070Z,39.78
2019-03-21T09:06:54.759Z,26.48
2019-03-21T09:09:26.513Z,35.55
2019-03-21T09:11:58.214Z,36.13
2019-03-21T09:14:30.056Z,30.50
2019-03-21T09:17:02.634Z,22.93
2019-03-21T09:19:34.355Z,21.40
2019-03-21T09:22:08.147Z,30.80
2019-03-21T09:24:41.903Z,28.05
2019-03-21T09:27:13.936Z,26.82
2019-03-21T09:29:53.355Z,35.95
2019-03-21T09:32:19.622Z,41.68
2019-03-21T09:34:51.428Z,29.75
2019-03-21T09:37:23.205Z,39.18
2019-03-21T09:39:55.128Z,39.80
2019-03-21T09:42:26.899Z,33.60
2019-03-21T09:44:58.752Z,25.08
2019-03-21T09:47:30.903Z,40.28
2019-03-21T09:50:02.719Z,27.20
2019-03-21T09:52:35.128Z,47.30
2019-03-21T09:55:08.562Z,31.12
2019-03-21T09:57:40.785Z,21.82
2019-03-21T10:00:12.857Z,32.98
2019-03-21T10:02:48.529Z,45.08
2019-03-21T10:05:22.889Z,40.43
2019-03-21T10:07:54.738Z,35.40
2019-03-21T10:10:31.309Z,38.95
2019-03-21T10:13:03.215Z,38.30
2019-03-21T10:15:35.301Z,42.25
2019-03-21T10:18:07.557Z,37.58
2019-03-21T10:20:39.344Z,45.98
2019-03-21T10:23:13.003Z,44.25
2019-03-21T10:25:44.728Z,46.00
2019-03-21T10:28:16.590Z,40.20
2019-03-21T10:30:48.323Z,47.70
2019-03-21T10:33:23.317Z,45.92
2019-03-21T10:35:55.121Z,47.85
2019-03-21T10:38:26.999Z,40.52
2019-03-21T10:40:58.745Z,46.58
2019-03-21T10:43:30.993Z,36.70
2019-03-21T10:46:02.735Z,48.70
2019-03-21T10:48:34.887Z,45.48
2019-03-21T10:51:15.044Z,47.85
2019-03-21T10:53:46.840Z,46.02
2019-03-21T10:56:18.559Z,40.88
2019-03-21T10:58:50.511Z,32.85
2019-03-21T11:01:22.228Z,42.78
2019-03-21T11:03:54.118Z,35.13
2019-03-21T11:06:26.242Z,35.48
2019-03-21T11:08:57.993Z,41.28
2019-03-21T11:11:29.683Z,43.38
2019-03-21T11:14:01.417Z,47.33
2019-03-21T11:16:33.236Z,44.42
2019-03-21T11:19:04.967Z,26.93
2019-03-21T11:21:36.777Z,47.13
2019-03-21T11:24:08.498Z,34.43
2019-03-21T11:26:40.764Z,40.63
2019-03-21T11:29:12.634Z,45.90
2019-03-21T11:31:44.358Z,33.13
2019-03-21T11:34:16.382Z,41.45
2019-03-21T11:36:49.128Z,32.73
2019-03-21T11:39:21.061Z,40.95
2019-03-21T11:41:52.848Z,41.95
2019-03-21T11:44:24.591Z,36.90
2019-03-21T11:46:56.434Z,42.67
2019-03-21T11:49:28.735Z,30.97
2019-03-21T11:52:00.543Z,28.62
2019-03-21T11:54:32.668Z,24.67
2019-03-21T11:57:04.595Z,22.65
2019-03-21T11:59:46.491Z,31.07
2019-03-21T12:02:09.878Z,44.40
2019-03-21T12:04:41.632Z,40.45
2019-03-21T12:07:13.331Z,32.75
2019-03-21T12:09:45.310Z,30.75
2019-03-21T12:12:17.110Z,24.45
2019-03-21T12:14:48.908Z,34.53
2019-03-21T12:17:20.641Z,32.10
2019-03-21T12:19:52.540Z,22.82
2019-03-21T12:22:29.972Z,33.40
2019-03-21T12:24:57.905Z,34.43
2019-03-21T12:27:29.806Z,38.00
2019-03-21T12:30:01.610Z,28.20
2019-03-21T12:32:33.434Z,31.55
2019-03-21T12:35:06.065Z,27.13
2019-03-21T12:37:37.867Z,35.83
2019-03-21T12:40:11.061Z,37.38
2019-03-21T12:42:44.245Z,31.57
2019-03-21T12:45:16.407Z,36.70
2019-03-21T12:47:48.138Z,33.58
2019-03-21T12:50:20.421Z,35.92
2019-03-21T12:52:53.176Z,30.95
2019-03-21T12:55:24.997Z,36.28
2019-03-21T12:57:56.947Z,35.52
2019-03-21T13:00:43.202Z,36.20
2019-03-21T13:03:15.452Z,39.75
2019-03-21T13:05:47.211Z,29.80
2019-03-21T13:08:18.961Z,39.58
2019-03-21T13:10:50.777Z,25.30
2019-03-21T13:13:22.712Z,27.22
2019-03-21T13:15:54.525Z,36.42
2019-03-21T13:18:26.489Z,21.90
2019-03-21T13:20:58.681Z,19.75
2019-03-21T13:23:30.511Z,32.33
2019-03-21T13:26:02.283Z,33.25
2019-03-21T13:28:34.378Z,31.07
2019-03-21T13:31:06.278Z,19.30
2019-03-21T13:33:38.020Z,24.72
2019-03-21T13:36:09.977Z,32.60
2019-03-21T13:38:42.813Z,30.68
2019-03-21T13:41:14.807Z,34.53
2019-03-21T13:43:46.569Z,27.07
2019-03-21T13:46:18.516Z,17.65
2019-03-21T13:48:50.353Z,32.83
2019-03-21T13:51:25.799Z,32.58
2019-03-21T13:53:57.552Z,30.00
2019-03-21T13:56:37.796Z,23.77
2019-03-21T13:59:03.007Z,27.37
2019-03-21T14:01:34.771Z,36.00
2019-03-21T14:04:06.635Z,37.10
2019-03-21T14:06:38.425Z,23.18
2019-03-21T14:09:10.434Z,20.45
2019-03-21T14:11:42.214Z,34.70
2019-03-21T14:14:14.011Z,33.98
2019-03-21T14:16:45.824Z,37.50
2019-03-21T14:19:17.660Z,38.80
2019-03-21T14:21:49.370Z,37.38
2019-03-21T14:24:21.391Z,37.93
2019-03-21T14:26:53.287Z,41.45
2019-03-21T14:29:25.089Z,42.95
2019-03-21T14:31:57.052Z,38.83
2019-03-21T14:34:28.784Z,27.50
2019-03-21T14:37:00.616Z,41.20
2019-03-21T14:39:32.505Z,40.55
2019-03-21T14:42:04.653Z,33.10
2019-03-21T14:44:36.477Z,33.70
2019-03-21T14:47:08.388Z,38.08
2019-03-21T14:49:40.284Z,44.33
2019-03-21T14:52:12.050Z,29.85
2019-03-21T14:54:58.833Z,36.33
2019-03-21T14:57:30.858Z,40.20
2019-03-21T15:00:03.134Z,45.48
2019-03-21T15:02:35.985Z,46.40
2019-03-21T15:05:09.464Z,44.53
2019-03-21T15:07:41.233Z,31.30
2019-03-21T15:10:14.226Z,44.58
2019-03-21T15:12:46.544Z,34.98
2019-03-21T15:15:18.401Z,45.20
2019-03-21T15:17:51.479Z,39.95
2019-03-21T15:20:23.265Z,29.37
2019-03-21T15:22:57.057Z,42.95
2019-03-21T15:25:29.244Z,48.48
2019-03-21T15:28:01.535Z,35.88
2019-03-21T15:30:36.699Z,46.35
2019-03-21T15:33:08.680Z,35.60
2019-03-21T15:35:40.523Z,33.08
2019-03-21T15:38:12.425Z,29.80
2019-03-21T15:40:44.365Z,30.82
2019-03-21T15:43:16.363Z,54.27
2019-03-21T15:45:48.456Z,52.05
2019-03-21T15:48:21.080Z,39.98
2019-03-21T15:51:03.845Z,50.28
2019-03-21T15:53:26.672Z,52.13
2019-03-21T15:55:59.249Z,39.33
2019-03-21T15:58:31.392Z,53.63
2019-03-21T16:01:03.383Z,46.77
2019-03-21T16:03:35.651Z,34.33
2019-03-21T16:06:07.563Z,40.05
2019-03-21T16:08:40.117Z,58.73
2019-03-21T16:11:11.938Z,52.62
2019-03-21T16:13:44.400Z,42.03
2019-03-21T16:16:16.128Z,52.90
2019-03-21T16:18:50.333Z,56.65
2019-03-21T16:21:22.089Z,31.75
2019-03-21T16:24:04.670Z,54.20
2019-03-21T16:26:27.316Z,49.35
2019-03-21T16:28:59.078Z,46.75
2019-03-21T16:31:31.692Z,39.90
2019-03-21T16:34:03.953Z,40.58
2019-03-21T16:36:35.712Z,53.75
2019-03-21T16:39:08.949Z,54.35
2019-03-21T16:41:40.698Z,42.58
2019-03-21T16:44:12.618Z,56.05
2019-03-21T16:46:44.897Z,37.83
2019-03-21T16:49:16.844Z,57.38
2019-03-21T16:51:48.552Z,45.92
2019-03-21T16:54:20.343Z,56.60
2019-03-21T16:56:52.520Z,54.83
2019-03-21T16:59:24.703Z,61.28
2019-03-21T17:01:56.471Z,55.12
2019-03-21T17:04:28.721Z,57.05
2019-03-21T17:07:03.811Z,56.98
2019-03-21T17:09:35.656Z,45.88
2019-03-21T17:12:07.516Z,50.38
2019-03-21T17:14:39.331Z,55.88
2019-03-21T17:17:11.508Z,56.63
2019-03-21T17:19:43.369Z,34.38
2019-03-21T17:22:15.172Z,45.50
2019-03-21T17:24:46.934Z,34.03
2019-03-21T17:27:18.664Z,43.50
2019-03-21T17:29:50.446Z,60.80
2019-03-21T17:32:22.784Z,62.15
2019-03-21T17:34:54.833Z,62.83
2019-03-21T17:37:31.793Z,52.45
2019-03-21T17:40:04.038Z,63.75
2019-03-21T17:42:35.903Z,59.50
2019-03-21T17:45:08.417Z,64.77
2019-03-21T17:47:40.716Z,64.25
2019-03-21T17:50:13.621Z,40.75
2019-03-21T17:52:45.520Z,63.28
2019-03-21T17:55:17.976Z,65.17
2019-03-21T17:57:49.951Z,64.90
2019-03-21T18:00:24.105Z,46.15
2019-03-21T18:02:56.289Z,57.23
2019-03-21T18:05:28.190Z,70.60
2019-03-21T18:08:00.135Z,63.23
2019-03-21T18:10:34.674Z,74.77
2019-03-21T18:13:06.599Z,57.10
2019-03-21T18:15:38.697Z,67.50
2019-03-21T18:18:10.520Z,69.58
2019-03-21T18:20:42.206Z,66.47
2019-03-21T18:23:14.031Z,71.95
2019-03-21T18:25:46.281Z,70.00
2019-03-21T18:28:18.057Z,67.95
2019-03-21T18:30:49.897Z,71.47
2019-03-21T18:33:22.140Z,77.03
2019-03-21T18:35:54.772Z,75.80
2019-03-21T18:38:26.726Z,53.90
2019-03-21T18:40:58.490Z,58.42
2019-03-21T18:43:30.270Z,79.05
2019-03-21T18:46:02.147Z,78.00
2019-03-21T18:48:33.856Z,84.03
2019-03-21T18:51:05.570Z,71.57
2019-03-21T18:53:37.638Z,68.72
2019-03-21T18:56:09.698Z,73.80
2019-03-21T18:58:41.621Z,60.75
2019-03-21T19:01:15.939Z,83.37
2019-03-21T19:03:48.103Z,74.97
2019-03-21T19:06:19.874Z,69.70
2019-03-21T19:08:51.584Z,46.18
2019-03-21T19:11:23.433Z,76.97
2019-03-21T19:13:55.147Z,91.63
2019-03-21T19:16:26.954Z,70.85
2019-03-21T19:18:59.182Z,76.95
2019-03-21T19:21:31.215Z,57.53
2019-03-21T19:24:02.921Z,67.87
2019-03-21T19:26:36.002Z,87.97
2019-03-21T19:29:08.991Z,75.05
2019-03-21T19:31:40.792Z,97.67
2019-03-21T19:34:13.556Z,96.25
2019-03-21T19:36:45.291Z,87.30
2019-03-21T19:39:17.029Z,86.30
2019-03-21T19:41:48.851Z,87.60
2019-03-21T19:44:20.569Z,88.10
2019-03-21T19:46:52.464Z,79.55
2019-03-21T19:49:24.214Z,88.82
2019-03-21T19:51:55.987Z,79.10
2019-03-21T19:54:27.784Z,73.30
2019-03-21T19:56:59.935Z,78.95
2019-03-21T19:59:32.210Z,81.35
2019-03-21T20:02:04.359Z,75.83
2019-03-21T20:04:36.250Z,70.65
2019-03-21T20:07:08.239Z,76.20
2019-03-21T20:09:40.553Z,79.72
2019-03-21T20:12:12.292Z,69.65
2019-03-21T20:14:44.106Z,73.75
2019-03-21T20:17:16.130Z,71.55
2019-03-21T20:19:47.961Z,58.20
2019-03-21T20:22:20.740Z,61.68
2019-03-21T20:24:54.089Z,70.70
2019-03-21T20:27:26.353Z,69.60
2019-03-21T20:29:59.236Z,58.60
2019-03-21T20:32:31.020Z,53.63
2019-03-21T20:35:03.094Z,64.05
2019-03-21T20:37:34.913Z,65.32
2019-03-21T20:40:08.499Z,62.95
2019-03-21T20:42:40.195Z,46.77
2019-03-21T20:45:13.580Z,44.13
2019-03-21T20:47:45.348Z,45.25
2019-03-21T20:50:18.206Z,56.83
2019-03-21T20:52:51.707Z,53.08
2019-03-21T20:55:24.013Z,59.10
2019-03-21T20:57:55.845Z,54.15
2019-03-21T21:00:27.882Z,61.25
2019-03-21T21:02:59.665Z,46.68
2019-03-21T21:05:31.416Z,34.48
2019-03-21T21:08:03.181Z,45.15
2019-03-21T21:10:35.059Z,42.20
2019-03-21T21:13:06.929Z,39.53
2019-03-21T21:15:39.126Z,38.50
2019-03-21T21:18:12.041Z,60.60
2019-03-21T21:20:44.859Z,49.95
2019-03-21T21:23:17.168Z,61.08
2019-03-21T21:25:48.897Z,56.23
2019-03-21T21:28:20.634Z,40.38
2019-03-21T21:30:52.474Z,59.95
2019-03-21T21:33:24.224Z,58.10
2019-03-21T21:35:55.961Z,63.55
2019-03-21T21:38:28.236Z,33.10
2019-03-21T21:41:00.498Z,53.23
2019-03-21T21:43:32.411Z,37.88
2019-03-21T21:46:04.209Z,23.67
2019-03-21T21:48:36.133Z,57.75
2019-03-21T21:51:07.865Z,54.60
2019-03-21T21:53:41.020Z,65.30
2019-03-21T21:56:17.508Z,47.23
2019-03-21T21:58:46.267Z,53.58
2019-03-21T22:01:18.027Z,70.05
2019-03-21T22:03:50.094Z,75.22
2019-03-21T22:06:22.399Z,30.65
2019-03-21T22:08:54.154Z,57.60
2019-03-21T22:11:25.986Z,45.38
2019-03-21T22:13:58.149Z,40.30
2019-03-21T22:16:29.971Z,60.38
2019-03-21T22:19:01.697Z,47.15
2019-03-21T22:21:33.494Z,49.20
2019-03-21T22:24:05.722Z,58.87
2019-03-21T22:26:37.986Z,42.33
2019-03-21T22:29:09.847Z,43.02
2019-03-21T22:31:41.714Z,46.55
2019-03-21T22:34:13.548Z,37.25
2019-03-21T22:36:49.541Z,52.83
2019-03-21T22:39:18.780Z,49.23
2019-03-21T22:41:52.041Z,33.88
2019-03-21T22:44:23.842Z,53.13
2019-03-21T22:46:56.448Z,53.78
2019-03-21T22:49:28.142Z,39.83
2019-03-21T22:51:59.923Z,51.65
2019-03-21T22:54:31.663Z,40.88
2019-03-21T22:57:03.510Z,52.10
2019-03-21T22:59:35.805Z,54.83
2019-03-21T23:02:07.638Z,37.25
2019-03-21T23:04:39.433Z,42.75
2019-03-21T23:07:11.201Z,50.23
2019-03-21T23:09:42.996Z,32.98
2019-03-21T23:12:15.683Z,52.23
2019-03-21T23:14:47.277Z,38.25
2019-03-21T23:17:19.017Z,49.18
2019-03-21T23:19:51.204Z,63.60
2019-03-21T23:22:22.894Z,41.33
2019-03-21T23:24:54.620Z,45.98
2019-03-21T23:27:26.454Z,59.90
2019-03-21T23:29:59.780Z,54.63
2019-03-21T23:32:31.573Z,53.08
2019-03-21T23:35:03.352Z,59.63
2019-03-21T23:37:35.354Z,57.75
2019-03-21T23:40:09.835Z,65.90
2019-03-21T23:42:41.633Z,58.15
2019-03-21T23:45:13.970Z,55.92
2019-03-21T23:48:24.041Z,56.58
2019-03-21T23:50:55.832Z,50.33
2019-03-21T23:53:27.556Z,37.48
2019-03-21T23:55:59.829Z,58.52
2019-03-21T23:58:31.696Z,61.85
